CheckWX is a tool to help pilots better visualize weather data.  It is not intended as a substitute for an official pre-flight weather briefing.

19:39:34 UTC

KBDR METAR
Igor I Sikorsky Memorial Airport
Bridgeport, Connecticut, USA
Current

48 mins ago

KBDR 201852Z 32015G20KT 10SM BKN065 OVC080 06/01 A2992 RMK AO2 SLP132 T00610006
Observed
Nov-20 @ 18:52 UTC
Wind
  • 320° at 15 KTS
  • Gusting to 20 KTS
Visibility
10 SM
Flight Rules
VFR
Cloud Levels
  • Broken at 6,500' AGL
  • Overcast at 8,000' AGL
Temperature
C / 43°F
Dewpoint
C / 34°F
Humidity
71%
Altimeter
29.92" Hg
Pressure
1013.22 hPa
Previous

2 hours ago

KBDR 201752Z 32013KT 10SM BKN044 OVC095 07/01 A2992 RMK AO2 SLP130 T00670011 10067 20044 58001
Observed
Nov-20 @ 17:52 UTC
Wind
  • 320° at 13 KTS
Visibility
10 SM
Flight Rules
VFR
Cloud Levels
  • Broken at 4,400' AGL
  • Overcast at 9,500' AGL
Temperature
C / 45°F
Dewpoint
C / 34°F
Humidity
66%
Altimeter
29.92" Hg
Pressure
1013.22 hPa
Previous

3 hours ago

KBDR 201652Z 33007KT 10SM OVC036 06/01 A2992 RMK AO2 SLP130 T00610011
Observed
Nov-20 @ 16:52 UTC
Wind
  • 330° at 7 KTS
Visibility
10 SM
Flight Rules
VFR
Cloud Levels
  • Overcast at 3,600' AGL
Temperature
C / 43°F
Dewpoint
C / 34°F
Humidity
71%
Altimeter
29.92" Hg
Pressure
1013.22 hPa